Terminal Aerodrome Forecast
Issued by NWS

Home | Current Version | Previous Version | Text Only | Print | Product List | Glossary On
Versions: 1 2 3 4 5 6 7 8 9 10 11 12 13 14 15 16
000
FTUS45 KTFX 261120
TAFHLN
TAF
KHLN 261120Z 2612/2712 26006KT 6SM -RA BR SCT030 OVC050
     FM261500 30006KT P6SM SCT060 BKN100
     FM270300 14006KT P6SM VCSH SCT050 BKN100=

USA.gov is the U.S. government's official web portal to all federal, state and local government web resources and services.